Time;durP1;ratioP1;P1;durP2;ratioP2;P2;SDS_P1;SDS_P2;PMS_P1;PMS_P2;Temp;Humidity;BMP_temperature;BMP_pressure;BME280_temperature;BME280_humidity;BME280_pressure;Samples;Min_cycle;Max_cycle;Signal;HPM_P1;HPM_P2
2021/09/29 05:23:37;;;;;;;;;;;;;;;;;;;;;
2021/09/29 05:26:22;462347.00;1.54;797.02;0.00;0.00;0.62;;;;;16.70;1.40;;;;;;2578305;55;949;-88
2021/09/29 05:29:33;;;;;;;;;;;;;;;;;;;;;
2021/09/29 05:38:18;858111.00;2.86;1482.66;0.00;0.00;0.62;;;;;15.50;5.70;;;;;;2546846;56;1899;-89
2021/09/29 05:40:58;534983.00;1.78;922.08;64028.00;0.21;111.44;;;;;15.60;5.40;;;;;;2546883;56;1549;-88
2021/09/29 05:43:44;586815.00;1.96;1011.46;30693.00;0.10;53.78;;;;;15.90;4.30;;;;;;2536800;56;1307;-89
2021/09/29 05:46:26;778543.00;2.60;1343.73;51676.00;0.17;90.08;;;;;16.00;4.90;;;;;;2531638;56;965;-87
2021/09/29 05:51:48;717281.00;2.39;1237.22;57554.00;0.19;100.25;;;;;16.20;3.40;;;;;;2529136;56;1123;-89
2021/09/29 05:54:28;496326.00;1.65;855.50;78005.00;0.26;135.59;;;;;16.60;3.60;;;;;;2531759;56;1635;-89
2021/09/29 06:43:23;468341.00;1.56;807.34;0.00;0.00;0.62;;;;;24.20;1.00;;;;;;2494523;57;1466;-89
2021/09/29 14:55:33;356070.00;1.19;614.29;0.00;0.00;0.62;;;;;19.00;1.00;;;;;;2586308;55;605;-89
2021/09/29 14:58:03;155875.00;0.52;269.93;0.00;0.00;0.62;;;;;19.10;1.00;;;;;;2586137;55;1941;-88
2021/09/29 15:00:30;206364.00;0.69;356.88;0.00;0.00;0.62;;;;;19.10;1.00;;;;;;2586380;55;1070;-87
2021/09/29 15:02:57;144517.00;0.48;250.36;0.00;0.00;0.62;;;;;19.00;1.00;;;;;;2586275;55;1351;-87
2021/09/29 15:05:24;1584112.00;5.28;2802.41;146842.00;0.49;254.36;;;;;19.30;1.00;;;;;;2586296;55;1038;-90
2021/09/29 15:07:51;60178.00;0.20;104.78;0.00;0.00;0.62;;;;;19.60;1.00;;;;;;2586335;55;1063;-88
2021/09/29 15:10:18;205353.00;0.68;355.14;0.00;0.00;0.62;;;;;19.40;1.00;;;;;;2586210;55;1090;-89
2021/09/29 15:12:47;179365.00;0.60;310.40;4749.00;0.02;8.85;;;;;19.40;1.00;;;;;;2586148;55;1357;-88
2021/09/29 15:15:20;1445257.00;4.82;2540.53;154612.00;0.52;267.76;;;;;19.40;1.00;;;;;;2588399;55;959;-89
2021/09/29 15:17:51;892175.00;2.97;1542.38;79792.00;0.27;138.68;;;;;19.40;1.00;;;;;;2586130;55;1046;-88
2021/09/29 15:20:21;812184.00;2.71;1402.38;80148.00;0.27;139.29;;;;;19.30;1.00;;;;;;2586204;55;1929;-88
2021/09/29 15:23:05;1560983.00;5.20;2758.40;193987.00;0.65;335.57;;;;;19.70;1.00;;;;;;2586143;55;1422;-88
2021/09/29 15:28:39;404136.00;1.35;696.92;66191.00;0.22;115.18;;;;;19.50;1.00;;;;;;2588422;55;682;-88
2021/09/29 15:47:40;264219.00;0.88;456.40;5705.00;0.02;10.51;;;;;19.20;1.00;;;;;;2588349;55;632;-87
2021/09/29 15:50:18;207174.00;0.69;358.27;0.00;0.00;0.62;;;;;18.90;1.00;;;;;;2588331;55;1714;-88
2021/09/29 15:55:47;404331.00;1.35;697.25;74816.00;0.25;130.08;;;;;18.30;1.00;;;;;;2573844;55;1537;-88
2021/09/29 16:01:06;524891.00;1.75;904.69;73067.00;0.24;127.06;;;;;18.30;1.00;;;;;;2584752;55;1143;-88
2021/09/29 16:03:46;450103.00;1.50;775.96;86794.00;0.29;150.77;;;;;18.10;1.00;;;;;;2588189;55;1608;-87
2021/09/29 16:17:34;790920.00;2.64;1365.29;47320.00;0.16;82.55;;;;;17.50;1.00;;;;;;2283349;60;911;-88
2021/09/29 16:31:12;448146.00;1.49;772.59;77351.00;0.26;134.46;;;;;17.30;1.00;;;;;;2283339;60;1917;-87
2021/09/29 16:33:54;239603.00;0.80;414.07;0.00;0.00;0.62;;;;;17.30;1.00;;;;;;2283266;60;1382;-87
2021/09/29 16:36:23;316493.00;1.05;546.27;0.00;0.00;0.62;;;;;17.50;1.00;;;;;;2283158;60;1125;-86
2021/09/29 16:38:50;294936.00;0.98;509.21;8658.00;0.03;15.62;;;;;17.20;1.00;;;;;;2282890;60;1622;-86
2021/09/29 16:41:19;247273.00;0.82;427.26;0.00;0.00;0.62;;;;;17.00;1.00;;;;;;2283247;60;913;-88
2021/09/29 16:43:48;376376.00;1.25;649.20;7210.00;0.02;13.12;;;;;16.80;1.00;;;;;;2283220;60;1253;-87
2021/09/29 16:46:19;340139.00;1.13;586.91;7878.00;0.03;14.27;;;;;16.60;1.00;;;;;;2283211;60;911;-90
2021/09/29 16:48:47;237969.00;0.79;411.26;10089.00;0.03;18.10;;;;;16.70;1.00;;;;;;2283282;60;1040;-86
2021/09/29 16:51:21;492272.00;1.64;848.52;14700.00;0.05;26.09;;;;;16.80;1.00;;;;;;2283199;60;1992;-86
2021/09/29 16:53:50;1070106.00;3.57;1857.04;131575.00;0.44;228.05;;;;;16.90;1.00;;;;;;2283109;60;1499;-86
2021/09/29 16:56:18;864941.00;2.88;1494.63;163754.00;0.55;283.51;;;;;16.70;1.00;;;;;;2283182;60;977;-86
2021/09/29 16:58:49;870708.00;2.90;1504.73;139626.00;0.47;241.93;;;;;16.90;1.00;;;;;;2283188;60;1013;-86
2021/09/29 17:01:41;890622.00;2.97;1539.66;77466.00;0.26;134.66;;;;;17.20;1.00;;;;;;2283218;60;1133;-87
2021/09/29 17:04:08;546304.00;1.82;941.59;75139.00;0.25;130.64;;;;;17.20;1.00;;;;;;2282997;60;1367;-88
2021/09/29 17:06:35;975068.00;3.25;1688.36;81192.00;0.27;141.10;;;;;17.30;1.00;;;;;;2283201;60;1560;-88
2021/09/29 17:09:02;948077.00;3.16;1640.72;79969.00;0.27;138.98;;;;;17.40;1.00;;;;;;2283191;60;1135;-87
2021/09/29 17:11:30;865631.00;2.89;1495.84;123870.00;0.41;214.76;;;;;17.60;1.00;;;;;;2283084;60;1996;-88
2021/09/29 17:13:58;762643.00;2.54;1316.05;83121.00;0.28;144.43;;;;;17.10;1.00;;;;;;2283101;60;1348;-87
2021/09/29 17:16:26;571141.00;1.90;984.42;21641.00;0.07;38.11;;;;;16.90;1.00;;;;;;2283156;60;1112;-87
2021/09/29 17:18:54;566974.00;1.89;977.23;132277.00;0.44;229.26;;;;;16.70;1.00;;;;;;2283179;60;1039;-87
2021/09/29 17:21:25;419931.00;1.40;724.07;100266.00;0.33;174.03;;;;;16.20;1.00;;;;;;2282423;60;943;-87
2021/09/29 17:23:55;524283.00;1.75;903.64;118484.00;0.39;205.47;;;;;16.10;1.00;;;;;;2280307;60;1452;-89
2021/09/29 17:26:22;310842.00;1.04;536.56;83155.00;0.28;144.49;;;;;16.50;1.00;;;;;;2280361;60;1150;-87
2021/09/29 17:28:53;92319.00;0.31;160.31;0.00;0.00;0.62;;;;;16.30;1.00;;;;;;2280316;60;1573;-87
2021/09/29 17:31:25;185904.00;0.62;321.66;0.00;0.00;0.62;;;;;16.20;1.00;;;;;;2280327;60;1919;-87
2021/09/29 17:33:57;198348.00;0.66;343.08;0.00;0.00;0.62;;;;;15.90;1.00;;;;;;2280239;60;1455;-89
2021/09/29 17:39:25;96341.00;0.32;167.26;0.00;0.00;0.62;;;;;16.30;1.00;;;;;;2279769;60;1142;-87
2021/09/29 17:52:59;265397.00;0.88;458.43;79090.00;0.26;137.47;;;;;17.60;1.00;;;;;;2280340;60;1479;-88
2021/09/29 17:55:26;95406.00;0.32;165.64;0.00;0.00;0.62;;;;;17.30;1.00;;;;;;2280365;60;1168;-89
2021/09/29 17:57:53;133516.00;0.45;231.39;0.00;0.00;0.62;;;;;17.60;1.00;;;;;;2280316;60;1134;-88
2021/09/29 18:00:20;169583.00;0.57;293.55;0.00;0.00;0.62;;;;;17.60;1.00;;;;;;2280297;60;1004;-89
2021/09/29 18:02:54;283694.00;0.95;489.89;0.00;0.00;0.62;;;;;17.20;1.00;;;;;;2280283;60;1356;-88
2021/09/29 18:05:33;189989.00;0.63;328.69;0.00;0.00;0.62;;;;;17.00;1.00;;;;;;2280307;60;1529;-88
2021/09/29 18:08:00;339887.00;1.13;586.48;80709.00;0.27;140.26;;;;;16.70;1.00;;;;;;2280335;60;1033;-89
2021/09/29 18:10:28;126138.00;0.42;218.67;0.00;0.00;0.62;;;;;16.90;1.00;;;;;;2280184;60;2244;-89
2021/09/29 18:12:55;118069.00;0.39;204.75;0.00;0.00;0.62;;;;;16.90;1.00;;;;;;2280300;60;1295;-88
2021/09/29 18:15:22;101669.00;0.34;176.45;0.00;0.00;0.62;;;;;17.20;1.00;;;;;;2280314;60;993;-89
2021/09/29 18:17:50;160682.00;0.54;278.21;0.00;0.00;0.62;;;;;17.00;1.00;;;;;;2280301;60;1011;-88
2021/09/29 18:20:18;379414.00;1.26;654.42;10826.00;0.04;19.38;;;;;16.90;1.00;;;;;;2280263;60;1113;-88
2021/09/29 18:22:46;115275.00;0.38;199.93;0.00;0.00;0.62;;;;;17.00;1.00;;;;;;2280254;60;1313;-88
2021/09/29 18:25:13;132232.00;0.44;229.18;0.00;0.00;0.62;;;;;17.10;1.00;;;;;;2280267;60;1151;-89
2021/09/29 18:27:40;216558.00;0.72;374.42;0.00;0.00;0.62;;;;;16.90;1.00;;;;;;2280283;60;960;-89
2021/09/29 18:30:10;243621.00;0.81;420.98;0.00;0.00;0.62;;;;;16.40;1.00;;;;;;2280207;60;1992;-88
2021/09/29 18:32:49;277161.00;0.92;478.66;0.00;0.00;0.62;;;;;16.20;1.00;;;;;;2280168;60;1372;-88
2021/09/29 18:35:18;355240.00;1.18;612.87;76512.00;0.26;133.01;;;;;16.20;1.00;;;;;;2280131;60;1566;-88
2021/09/29 18:37:52;664604.00;2.22;1145.91;157590.00;0.53;272.89;;;;;16.30;1.00;;;;;;2280238;60;1146;-88
2021/09/29 18:40:19;329756.00;1.10;569.07;68752.00;0.23;119.60;;;;;16.50;1.00;;;;;;2280288;60;955;-88
2021/09/29 18:42:47;469661.00;1.57;809.61;82277.00;0.27;142.97;;;;;16.70;1.00;;;;;;2280102;60;1736;-88
2021/09/29 18:45:15;275783.00;0.92;476.29;79627.00;0.27;138.39;;;;;17.10;1.00;;;;;;2280188;60;1146;-88
2021/09/29 18:47:42;339657.00;1.13;586.08;64024.00;0.21;111.43;;;;;17.00;1.00;;;;;;2280184;60;1114;-88
2021/09/29 18:50:10;308498.00;1.03;532.53;77423.00;0.26;134.59;;;;;17.10;1.00;;;;;;2280083;60;1923;-88
2021/09/29 18:52:39;374844.00;1.25;646.56;76714.00;0.26;133.36;;;;;17.10;1.00;;;;;;2280172;60;1366;-88
2021/09/29 18:55:15;392742.00;1.31;677.33;94020.00;0.31;163.25;;;;;17.20;1.00;;;;;;2280157;60;1262;-89
2021/09/29 19:03:40;932842.00;3.11;1613.88;88499.00;0.29;153.72;;;;;18.00;1.00;;;;;;2280206;60;936;-88
2021/09/29 19:09:12;102694.00;0.34;178.22;0.00;0.00;0.62;;;;;17.80;1.00;;;;;;2267507;61;615;-88
2021/09/29 19:11:40;435882.00;1.45;751.50;32680.00;0.11;57.22;;;;;18.10;1.00;;;;;;2267270;61;2010;-88
2021/09/29 19:14:07;541422.00;1.80;933.17;0.00;0.00;0.62;;;;;17.70;1.00;;;;;;2267470;61;1380;-89
2021/09/29 19:16:36;537484.00;1.79;926.39;6668.00;0.02;12.18;;;;;17.30;1.00;;;;;;2267526;61;979;-88
2021/09/29 19:19:04;694788.00;2.32;1198.20;64597.00;0.22;112.42;;;;;17.20;1.00;;;;;;2267488;61;1754;-87
2021/09/29 19:21:31;663478.00;2.21;1143.96;16288.00;0.05;28.84;;;;;17.30;1.00;;;;;;2267520;61;1071;-86
2021/09/29 19:23:59;537111.00;1.79;925.74;0.00;0.00;0.62;;;;;17.80;1.00;;;;;;2267448;61;1409;-88
2021/09/29 19:26:29;529346.00;1.76;912.37;27324.00;0.09;47.95;;;;;17.90;1.00;;;;;;2267446;61;1114;-89
2021/09/29 19:28:56;188516.00;0.63;326.15;0.00;0.00;0.62;;;;;18.20;1.00;;;;;;2267459;61;1141;-88
2021/09/29 19:31:24;495431.00;1.65;853.96;0.00;0.00;0.62;;;;;18.50;1.00;;;;;;2267407;61;1998;-88
2021/09/29 19:33:52;649869.00;2.17;1120.41;0.00;0.00;0.62;;;;;18.40;1.00;;;;;;2267325;61;1504;-88
2021/09/29 19:36:21;558839.00;1.86;963.20;0.00;0.00;0.62;;;;;18.40;1.00;;;;;;2268752;60;1104;-88
2021/09/29 19:38:48;779785.00;2.60;1345.89;95789.00;0.32;166.30;;;;;18.30;1.00;;;;;;2279996;60;1050;-88
2021/09/29 19:41:16;993250.00;3.31;1720.52;14592.00;0.05;25.90;;;;;18.30;1.00;;;;;;2279936;60;939;-89
2021/09/29 19:43:45;575328.00;1.92;991.64;46122.00;0.15;80.48;;;;;17.90;1.00;;;;;;2279870;60;1526;-88
2021/09/29 19:46:16;335614.00;1.12;579.14;0.00;0.00;0.62;;;;;17.70;1.00;;;;;;2279903;60;1715;-88
2021/09/29 19:52:00;289842.00;0.97;500.46;0.00;0.00;0.62;;;;;17.70;1.00;;;;;;2279738;60;2000;-89
2021/09/29 20:03:00;265737.00;0.89;459.01;50448.00;0.17;87.96;;;;;17.60;1.00;;;;;;2279958;60;1437;-88
2021/09/29 20:08:11;137761.00;0.46;238.71;0.00;0.00;0.62;;;;;17.60;1.00;;;;;;2280003;60;589;-89
2021/09/29 20:10:39;119101.00;0.40;206.53;0.00;0.00;0.62;;;;;17.60;1.00;;;;;;2279801;60;1998;-88
2021/09/29 20:13:06;199978.00;0.67;345.89;0.00;0.00;0.62;;;;;17.00;1.00;;;;;;2279917;60;1297;-87
2021/09/29 20:15:34;157464.00;0.52;272.67;0.00;0.00;0.62;;;;;16.80;1.00;;;;;;2280007;60;1109;-87
2021/09/29 20:18:06;138433.00;0.46;239.87;0.00;0.00;0.62;;;;;16.70;1.00;;;;;;2279958;60;1090;-88
2021/09/29 20:20:33;194247.00;0.65;336.02;2947.00;0.01;5.73;;;;;16.50;1.00;;;;;;2279925;60;1170;-88
2021/09/29 20:23:02;256231.00;0.85;442.67;0.00;0.00;0.62;;;;;16.40;1.00;;;;;;2279869;60;1368;-89
2021/09/29 20:25:32;139988.00;0.47;242.55;0.00;0.00;0.62;;;;;16.10;1.00;;;;;;2279933;60;1117;-87
2021/09/29 20:27:59;199038.00;0.66;344.27;0.00;0.00;0.62;;;;;16.20;1.00;;;;;;2279915;60;1078;-88
2021/09/29 20:30:29;165476.00;0.55;286.47;0.00;0.00;0.62;;;;;16.40;1.00;;;;;;2279899;60;1098;-87
2021/09/29 20:32:59;171037.00;0.57;296.05;0.00;0.00;0.62;;;;;16.50;1.00;;;;;;2279854;60;1353;-89
2021/09/29 20:35:34;51442.00;0.17;89.68;0.00;0.00;0.62;;;;;15.90;1.00;;;;;;2279847;60;1215;-87
2021/09/29 20:43:33;218869.00;0.73;378.40;0.00;0.00;0.62;;;;;15.60;1.00;;;;;;2279852;60;1431;-88
2021/09/29 20:46:02;567699.00;1.89;978.48;132611.00;0.44;229.83;;;;;15.60;1.00;;;;;;2279793;60;987;-87
2021/09/29 20:48:32;167762.00;0.56;290.41;0.00;0.00;0.62;;;;;15.50;1.00;;;;;;2279484;60;974;-85
2021/09/29 20:51:00;145787.00;0.49;252.55;0.00;0.00;0.62;;;;;15.30;1.00;;;;;;2279814;60;2038;-86
2021/09/29 20:53:30;191735.00;0.64;331.70;0.00;0.00;0.62;;;;;15.00;1.00;;;;;;2279812;60;1368;-87
2021/09/29 20:55:57;205803.00;0.69;355.91;0.00;0.00;0.62;;;;;15.30;1.00;;;;;;2279789;60;1624;-89
2021/09/29 20:58:24;183581.00;0.61;317.66;0.00;0.00;0.62;;;;;15.40;1.00;;;;;;2280561;60;909;-88
2021/09/29 21:00:52;154178.00;0.51;267.01;0.00;0.00;0.62;;;;;15.80;1.00;;;;;;2279962;60;1089;-88
2021/09/29 21:03:19;281396.00;0.94;485.94;0.00;0.00;0.62;;;;;15.80;1.00;;;;;;2280576;60;1419;-88
2021/09/29 21:05:48;218329.00;0.73;377.47;0.00;0.00;0.62;;;;;15.70;1.00;;;;;;2280390;60;1680;-88
2021/09/29 21:08:18;326543.00;1.09;563.54;0.00;0.00;0.62;;;;;15.50;1.00;;;;;;2280492;60;1181;-88
2021/09/29 21:10:49;273015.00;0.91;471.53;0.00;0.00;0.62;;;;;15.50;1.00;;;;;;2280301;60;1915;-89
2021/09/29 21:13:18;242068.00;0.81;418.31;0.00;0.00;0.62;;;;;15.40;1.00;;;;;;2280454;60;1431;-89
2021/09/29 21:15:46;228753.00;0.76;395.40;0.00;0.00;0.62;;;;;15.20;1.00;;;;;;2280541;60;961;-88
2021/09/29 21:18:14;275574.00;0.92;475.93;0.00;0.00;0.62;;;;;15.00;1.00;;;;;;2280531;60;1012;-88
2021/09/29 21:20:45;170564.00;0.57;295.24;0.00;0.00;0.62;;;;;14.70;1.00;;;;;;2280413;60;1134;-89
2021/09/29 21:23:16;234327.00;0.78;404.99;0.00;0.00;0.62;;;;;14.60;1.00;;;;;;2280443;60;1452;-88
2021/09/29 21:25:45;454689.00;1.52;783.85;0.00;0.00;0.62;;;;;14.60;1.00;;;;;;2280330;60;1616;-88
2021/09/29 21:28:15;307295.00;1.02;530.46;0.00;0.00;0.62;;;;;14.40;1.00;;;;;;2280405;60;2027;-89
2021/09/29 21:30:43;320966.00;1.07;553.96;0.00;0.00;0.62;;;;;14.50;1.00;;;;;;2280351;60;1641;-88
2021/09/29 21:33:11;225704.00;0.75;390.16;0.00;0.00;0.62;;;;;14.40;1.00;;;;;;2280330;60;1979;-88
2021/09/29 21:35:38;492920.00;1.64;849.64;0.00;0.00;0.62;;;;;14.40;1.00;;;;;;2280361;60;1120;-88
2021/09/29 21:38:21;308913.00;1.03;533.24;0.00;0.00;0.62;;;;;14.70;1.00;;;;;;2280359;60;1184;-88
2021/09/29 21:46:47;327595.00;1.09;565.35;0.00;0.00;0.62;;;;;14.70;1.00;;;;;;2280441;60;651;-89
2021/09/29 22:19:51;161451.00;0.54;279.54;0.00;0.00;0.62;;;;;15.10;1.00;;;;;;2280290;60;769;-88
2021/09/29 22:33:37;149877.00;0.50;259.60;0.00;0.00;0.62;;;;;15.00;1.00;;;;;;2280272;60;1336;-88
2021/09/29 22:42:08;220733.00;0.74;381.60;0.00;0.00;0.62;;;;;15.00;1.00;;;;;;2280263;60;1043;-88
2021/09/29 23:06:51;182599.00;0.61;315.97;0.00;0.00;0.62;;;;;14.70;1.00;;;;;;2280258;60;614;-88
2021/09/29 23:09:28;276108.00;0.92;476.85;0.00;0.00;0.62;;;;;14.80;1.00;;;;;;2280159;60;1561;-88
2021/09/29 23:12:01;117820.00;0.39;204.32;0.00;0.00;0.62;;;;;14.80;1.00;;;;;;2280192;60;1989;-89
2021/09/29 23:22:15;176291.00;0.59;305.10;0.00;0.00;0.62;;;;;15.20;1.00;;;;;;2280125;60;1508;-88
2021/09/29 23:34:09;134723632.00;449.08;99090320.00;0.00;0.00;0.62;;;;;16.30;1.00;;;;;;2280135;60;1345;-89
2021/09/29 23:36:37;287677.00;0.96;496.74;0.00;0.00;0.62;;;;;15.50;1.00;;;;;;2280059;60;1742;-89
2021/09/29 23:39:04;423322.00;1.41;729.90;0.00;0.00;0.62;;;;;14.70;1.00;;;;;;2280120;60;1081;-89
2021/09/29 23:41:31;347948.00;1.16;600.33;0.00;0.00;0.62;;;;;14.30;1.00;;;;;;2280062;60;1028;-88
2021/09/29 23:43:58;354349.00;1.18;611.34;0.00;0.00;0.62;;;;;14.10;1.00;;;;;;2280142;60;1357;-89
2021/09/29 23:46:25;226041.00;0.75;390.74;0.00;0.00;0.62;;;;;14.40;1.00;;;;;;2280041;60;1700;-89
2021/09/29 23:48:52;413695.00;1.38;713.35;40026.00;0.13;69.93;;;;;14.60;1.00;;;;;;2280046;60;1078;-88
2021/09/29 23:51:19;150201.00;0.50;260.15;0.00;0.00;0.62;;;;;14.80;1.00;;;;;;2280037;60;1915;-89
2021/09/29 23:53:48;252505.00;0.84;436.26;0.00;0.00;0.62;;;;;14.50;1.00;;;;;;2280039;60;1264;-88
2021/09/29 23:56:14;126983.00;0.42;220.13;0.00;0.00;0.62;;;;;14.30;1.00;;;;;;2279955;60;1236;-87
2021/09/29 23:58:41;179394.00;0.60;310.45;0.00;0.00;0.62;;;;;14.40;1.00;;;;;;2280071;60;1066;-89
